East Horsley, United Kingdom
Current Conditions -  °F | °C
As of 2:20 PM on Saturday 20 Dec 2014 (Local Time) from EGKK Reporting Station
Scattered Clouds Scattered Clouds  
Wind Chill: 42°   Ceiling: Unl
Heat Index: 48°   Visibility: 6mi
Dew Point: 37°   Wind: 15mph
Humidity: 66%   Direction: 270°W
Pressure: 30.33"   Gusts: NA
Location:  51.27°N, 0.43°W
Report Text: EGKK 201420Z 27013KT 9999 SCT031 09/03 Q1027
Loading
Personal Weather Stations






























Interactive Weather Map New forecast layout! Learn more

10-Day Weather Forecast

Advertisements
Track Severe Weather on mobile